createdAt,value
2022-11-14T00:05:25.188Z,-0.1
2022-11-14T00:10:48.668Z,-0.2
2022-11-14T00:16:10.455Z,-0.3
2022-11-14T00:21:17.112Z,-0.4
2022-11-14T00:26:55.976Z,-0.4
2022-11-14T00:32:33.654Z,-0.5
2022-11-14T00:37:55.789Z,-0.6
2022-11-14T00:43:03.540Z,-0.4
2022-11-14T00:48:41.298Z,-0.4
2022-11-14T00:54:18.407Z,-0.5
2022-11-14T00:59:57.424Z,-0.6
2022-11-14T01:05:40.055Z,-0.6
2022-11-14T01:11:18.119Z,-0.8
2022-11-14T01:16:41.208Z,-0.8
2022-11-14T01:27:45.184Z,-1
2022-11-14T01:33:23.647Z,-1.1
2022-11-14T01:38:46.327Z,-1.2
2022-11-14T01:44:28.806Z,-1.3
2022-11-14T01:50:07.085Z,-1.3
2022-11-14T01:55:44.111Z,-1.3
2022-11-14T02:00:50.765Z,-1.3
2022-11-14T02:06:34.321Z,-1.2
2022-11-14T02:12:12.779Z,-1.1
2022-11-14T02:18:23.085Z,-1.1
2022-11-14T02:23:49.694Z,-1.1
2022-11-14T02:29:13.261Z,-1.1
2022-11-14T02:34:56.095Z,-1
2022-11-14T02:40:34.787Z,-0.9
2022-11-14T02:46:12.549Z,-0.8
2022-11-14T02:51:50.292Z,-0.7
2022-11-14T02:56:59.500Z,-0.6
2022-11-14T03:02:18.051Z,-0.5
2022-11-14T03:07:09.516Z,-0.4
2022-11-14T03:12:00.888Z,-0.4
2022-11-14T03:17:39.404Z,-0.3
2022-11-14T03:22:46.496Z,-0.3
2022-11-14T03:28:23.730Z,-0.1
2022-11-14T03:34:02.230Z,-0.1
2022-11-14T03:39:42.566Z,0
2022-11-14T03:45:18.929Z,0.1
2022-11-14T03:50:57.614Z,0.2
2022-11-14T03:56:04.250Z,0.3
2022-11-14T04:01:10.940Z,0.4
2022-11-14T04:06:49.878Z,0.4
2022-11-14T04:12:33.179Z,0.5
2022-11-14T04:18:13.972Z,0.6
2022-11-14T04:23:37.628Z,0.7
2022-11-14T04:29:00.599Z,0.8
2022-11-14T04:34:37.675Z,0.8
2022-11-14T04:40:02.246Z,0.9
2022-11-14T04:45:40.776Z,0.9
2022-11-14T04:51:17.429Z,1.1
2022-11-14T04:56:40.053Z,1.1
2022-11-14T05:02:08.441Z,1.1
2022-11-14T05:07:30.850Z,1.2
2022-11-14T05:13:13.511Z,1.3
2022-11-14T05:18:33.909Z,1.3
2022-11-14T05:24:10.820Z,1.4
2022-11-14T05:29:21.208Z,1.4
2022-11-14T05:34:32.196Z,1.4
2022-11-14T05:39:38.266Z,1.5
2022-11-14T05:45:00.185Z,1.6
2022-11-14T05:50:37.935Z,1.6
2022-11-14T05:56:20.461Z,1.7
2022-11-14T06:02:05.720Z,1.8
2022-11-14T06:07:28.685Z,1.8
2022-11-14T06:13:06.543Z,1.9
2022-11-14T06:18:45.097Z,2
2022-11-14T06:24:22.747Z,2.1
2022-11-14T06:30:04.172Z,2.2
2022-11-14T06:35:41.919Z,2.3
2022-11-14T06:41:19.839Z,2.4
2022-11-14T06:47:03.212Z,2.6
2022-11-14T06:52:15.437Z,2.8
2022-11-14T06:57:59.578Z,3
2022-11-14T07:03:22.176Z,3.2
2022-11-14T07:08:44.333Z,3.5
2022-11-14T07:14:06.268Z,3.8
2022-11-14T07:19:32.501Z,4.2
2022-11-14T07:24:54.205Z,4.4
2022-11-14T07:30:22.188Z,4.8
2022-11-14T07:35:43.706Z,5.1
2022-11-14T07:41:06.413Z,5.4
2022-11-14T07:46:28.649Z,5.8
2022-11-14T07:51:50.727Z,6.2
2022-11-14T07:57:12.983Z,6.6
2022-11-14T08:02:39.311Z,7
2022-11-14T08:08:17.297Z,7.4
2022-11-14T08:14:20.803Z,8.1
2022-11-14T08:19:43.634Z,8.7
2022-11-14T08:25:06.033Z,9.3
2022-11-14T08:30:49.866Z,9.8
2022-11-14T08:36:16.813Z,10.4
2022-11-14T08:41:55.680Z,10.9
2022-11-14T08:47:33.453Z,11.3
2022-11-14T08:53:12.834Z,11.6
2022-11-14T08:58:51.021Z,11.9
2022-11-14T09:04:34.378Z,12.1
2022-11-14T09:10:14.276Z,12.2
2022-11-14T09:15:54.073Z,12.4
2022-11-14T09:21:44.636Z,12.6
2022-11-14T09:27:31.266Z,12.7
2022-11-14T09:33:11.821Z,12.8
2022-11-14T09:38:55.984Z,12.9
2022-11-14T09:44:38.529Z,13.2
2022-11-14T09:50:19.622Z,13.6
2022-11-14T09:56:00.151Z,13.8
2022-11-14T10:01:43.752Z,13.9
2022-11-14T10:07:07.163Z,14.1
2022-11-14T10:12:46.204Z,14.4
2022-11-14T10:18:09.948Z,15.1
2022-11-14T10:23:47.965Z,15.8
2022-11-14T10:29:33.369Z,16.4
2022-11-14T10:35:10.893Z,17.1
2022-11-14T10:40:56.412Z,18.1
2022-11-14T10:46:51.723Z,19.8
2022-11-14T10:52:30.342Z,22.3
2022-11-14T10:58:47.599Z,29.6
2022-11-14T11:04:26.817Z,38.1
2022-11-14T11:11:35.318Z,45.4
2022-11-14T11:16:57.785Z,37.4
2022-11-14T11:22:32.402Z,36.4
2022-11-14T11:28:10.551Z,44.9
2022-11-14T11:33:49.127Z,43.8
2022-11-14T11:39:28.686Z,39.9
2022-11-14T11:46:33.220Z,40.9
2022-11-14T11:51:55.748Z,41.4
2022-11-14T11:57:39.234Z,42
2022-11-14T12:03:07.827Z,42.6
2022-11-14T12:08:54.066Z,43.1
2022-11-14T12:15:01.494Z,43.3
2022-11-14T12:20:45.668Z,43.4
2022-11-14T12:26:30.761Z,43.6
2022-11-14T12:32:15.467Z,43.8
2022-11-14T12:37:55.942Z,43.8
2022-11-14T12:43:37.056Z,43.6
2022-11-14T12:49:16.561Z,43.3
2022-11-14T12:54:56.941Z,43
2022-11-14T13:00:37.284Z,42.8
2022-11-14T13:05:50.573Z,42.4
2022-11-14T13:11:18.435Z,42.1
2022-11-14T13:17:01.443Z,40.3
2022-11-14T13:22:41.419Z,39.7
2022-11-14T13:28:42.459Z,39.9
2022-11-14T13:34:21.248Z,39.9
2022-11-14T13:40:04.695Z,39.6
2022-11-14T13:45:48.212Z,39
2022-11-14T13:51:53.963Z,37.9
2022-11-14T13:57:32.937Z,36.6
2022-11-14T14:03:13.793Z,35.3
2022-11-14T14:08:57.763Z,34
2022-11-14T14:14:36.225Z,32.5
2022-11-14T14:20:21.245Z,30.9
2022-11-14T14:25:59.854Z,29.2
2022-11-14T14:31:42.365Z,27.4
2022-11-14T14:37:26.057Z,25.7
2022-11-14T14:43:09.054Z,23.9
2022-11-14T14:48:48.219Z,22.2
2022-11-14T14:54:31.263Z,20.3
2022-11-14T15:00:08.920Z,18.6
2022-11-14T15:05:37.541Z,17.1
2022-11-14T15:11:16.141Z,15.9
2022-11-14T15:16:54.562Z,14.8
2022-11-14T15:22:39.739Z,13.7
2022-11-14T15:28:18.039Z,12.8
2022-11-14T15:33:40.839Z,12
2022-11-14T15:39:54.629Z,11.1
2022-11-14T15:45:32.741Z,10.4
2022-11-14T15:51:10.846Z,9.7
2022-11-14T15:56:49.692Z,9.2
2022-11-14T16:02:53.846Z,8.7
2022-11-14T16:08:32.261Z,8.3
2022-11-14T16:13:45.115Z,7.9
2022-11-14T16:19:07.436Z,7.4
2022-11-14T16:24:33.812Z,7
2022-11-14T16:29:56.883Z,6.6
2022-11-14T16:35:19.490Z,6.3
2022-11-14T16:40:57.223Z,5.9
2022-11-14T16:46:27.265Z,5.6
2022-11-14T16:52:04.164Z,5.4
2022-11-14T16:57:26.220Z,5.1
2022-11-14T17:03:06.699Z,4.8
2022-11-14T17:08:35.020Z,4.6
2022-11-14T17:13:58.515Z,4.3
2022-11-14T17:19:37.224Z,4.1
2022-11-14T17:25:05.053Z,4
2022-11-14T17:30:27.294Z,3.8
2022-11-14T17:35:22.240Z,3.6
2022-11-14T17:40:59.176Z,3.4
2022-11-14T17:46:36.899Z,3.2
2022-11-14T17:52:19.447Z,3.1
2022-11-14T17:57:47.981Z,2.9
2022-11-14T18:03:26.162Z,2.8
2022-11-14T18:08:54.595Z,2.6
2022-11-14T18:14:35.955Z,2.6
2022-11-14T18:20:31.712Z,2.4
2022-11-14T18:26:09.840Z,2.4
2022-11-14T18:32:10.427Z,2.3
2022-11-14T18:37:47.986Z,2.3
2022-11-14T18:43:00.108Z,2.3
2022-11-14T18:48:39.225Z,2.1
2022-11-14T18:54:07.411Z,2
2022-11-14T18:59:14.816Z,1.9
2022-11-14T19:04:53.890Z,1.8
2022-11-14T19:10:22.432Z,1.7
2022-11-14T19:16:00.789Z,1.6
2022-11-14T19:21:43.017Z,1.5
2022-11-14T19:27:23.059Z,1.4
2022-11-14T19:33:01.046Z,1.3
2022-11-14T19:38:59.339Z,1.1
2022-11-14T19:44:23.980Z,1
2022-11-14T19:50:02.084Z,0.9
2022-11-14T19:55:27.711Z,0.8
2022-11-14T20:01:09.567Z,0.8
2022-11-14T20:06:48.214Z,0.8
2022-11-14T20:12:29.779Z,0.8
2022-11-14T20:17:52.205Z,0.8
2022-11-14T20:23:16.136Z,0.7
2022-11-14T20:28:29.549Z,0.7
2022-11-14T20:34:08.033Z,0.7
2022-11-14T20:40:08.765Z,0.7
2022-11-14T20:45:46.907Z,0.7
2022-11-14T20:51:10.798Z,0.7
2022-11-14T20:56:38.902Z,0.7
2022-11-14T21:02:18.236Z,0.8
2022-11-14T21:07:55.716Z,0.8
2022-11-14T21:13:34.281Z,0.7
2022-11-14T21:19:10.765Z,0.7
2022-11-14T21:24:36.974Z,0.7
2022-11-14T21:30:17.675Z,0.7
2022-11-14T21:35:43.461Z,0.6
2022-11-14T21:41:53.504Z,0.6
2022-11-14T21:47:35.725Z,0.6
2022-11-14T21:53:14.022Z,0.5
2022-11-14T21:58:22.632Z,0.5
2022-11-14T22:03:49.285Z,0.4
2022-11-14T22:09:27.194Z,0.3
2022-11-14T22:15:07.451Z,0.2
2022-11-14T22:20:50.629Z,0.1
2022-11-14T22:26:12.912Z,0
2022-11-14T22:31:18.789Z,-0.1
2022-11-14T22:36:57.136Z,-0.1
2022-11-14T22:42:41.138Z,-0.3
2022-11-14T22:48:18.453Z,-0.2
2022-11-14T22:53:55.912Z,-0.2
2022-11-14T22:58:47.147Z,-0.3
2022-11-14T23:04:31.894Z,-0.4
2022-11-14T23:10:10.219Z,-0.5
2022-11-14T23:15:48.414Z,-0.5
2022-11-14T23:21:13.202Z,-0.6
2022-11-14T23:26:50.191Z,-0.6
2022-11-14T23:32:27.839Z,-0.8
2022-11-14T23:38:05.308Z,-0.8
2022-11-14T23:43:42.861Z,-0.9
2022-11-14T23:49:19.457Z,-1
2022-11-14T23:54:41.809Z,-1.1
